Rudd, Arkansas
Current Conditions -  °F | °C
As of 11:53 PM on Monday 20 Oct 2014 (Local Time) from KHRO Reporting Station
Clear Clear  
Wind Chill: 58°   Ceiling: Unl
Heat Index: 58°   Visibility: 8mi
Dew Point: 57°   Wind: 6mph
Humidity: 97%   Direction: 260°W
Pressure: 30.08"   Gusts: NA
Location:  36.3056°N, 93.5491°W
Report Text: KHRO 210453Z AUTO 26005KT 8SM CLR 14/14 A3008 RMK AO2 SLP178 T01440139
Loading
Personal Weather Stations






























Interactive Weather Map
Tropical Storm Tracking
New forecast layout! Learn more

10-Day Weather Forecast

Advertisements
Track Severe Weather on mobile